Time;durP1;ratioP1;P1;durP2;ratioP2;P2;SDS_P1;SDS_P2;PMS_P1;PMS_P2;Temp;Humidity;BMP_temperature;BMP_pressure;BME280_temperature;BME280_humidity;BME280_pressure;Samples;Min_cycle;Max_cycle;Signal;HPM_P1;HPM_P2
2021/12/05 00:18:21;;;;;;;6.15;1.42;;;;;;;-0.39;100.00;91748.94;2092640;28;20143;-86
2021/12/05 00:22:12;;;;;;;5.35;0.93;;;;;;;-0.58;100.00;91755.34;2081171;28;20030;-85
2021/12/05 00:23:21;;;;;;;3.45;0.85;;;;;;;-0.59;100.00;91753.84;2089570;28;20355;-86
2021/12/05 00:24:25;;;;;;;2.60;0.82;;;;;;;-0.60;100.00;91746.38;2083819;28;20104;-87
2021/12/05 00:25:29;;;;;;;3.22;0.77;;;;;;;-0.55;100.00;91751.22;2096088;28;20024;-86
2021/12/05 00:26:34;;;;;;;8.45;0.90;;;;;;;-0.62;100.00;91743.38;2098434;28;20025;-86
2021/12/05 00:27:41;;;;;;;3.38;0.90;;;;;;;-0.73;100.00;91746.03;2090226;28;20035;-86
2021/12/05 00:32:28;;;;;;;3.75;1.20;;;;;;;-0.62;100.00;91746.75;2098399;28;20697;-86
2021/12/05 00:33:55;;;;;;;4.68;1.27;;;;;;;-0.63;100.00;91732.13;2099986;28;20165;-85
2021/12/05 00:49:53;;;;;;;2.53;0.77;;;;;;;-0.81;100.00;91741.91;2089636;28;20036;-87
2021/12/05 01:08:02;;;;;;;4.45;1.52;;;;;;;-1.08;100.00;91752.06;2099281;28;20112;-84
2021/12/05 01:14:30;;;;;;;2.92;1.08;;;;;;;-1.04;100.00;91760.69;2106179;28;20046;-84
2021/12/05 01:15:32;;;;;;;1.90;0.90;;;;;;;-1.00;100.00;91766.69;2091104;28;20402;-85
2021/12/05 01:16:35;;;;;;;3.58;0.80;;;;;;;-0.98;100.00;91766.28;2092564;28;20033;-85
2021/12/05 01:18:12;;;;;;;6.15;0.90;;;;;;;-1.02;100.00;91761.78;2097557;28;20024;-85
2021/12/05 01:19:14;;;;;;;5.55;1.30;;;;;;;-1.19;100.00;91762.53;2100500;28;20131;-85
2021/12/05 01:20:19;;;;;;;4.30;1.42;;;;;;;-1.13;100.00;91768.19;2103373;28;20272;-85
2021/12/05 01:21:22;;;;;;;2.92;1.33;;;;;;;-1.10;100.00;91767.41;2098343;28;20020;-85
2021/12/05 01:22:27;;;;;;;4.38;1.40;;;;;;;-0.95;100.00;91773.41;2090162;28;20452;-85
2021/12/05 01:23:46;;;;;;;3.53;1.17;;;;;;;-1.06;100.00;91771.53;2095862;28;20090;-84
2021/12/05 01:26:13;;;;;;;3.50;1.30;;;;;;;-1.12;100.00;91772.28;2099146;28;20025;-85
2021/12/05 01:27:39;;;;;;;7.30;1.30;;;;;;;-1.22;100.00;91778.28;2091190;28;20759;-84
2021/12/05 01:30:10;;;;;;;3.60;0.90;;;;;;;-1.22;100.00;91781.66;2106137;28;20028;-85
2021/12/05 01:33:51;;;;;;;5.78;1.30;;;;;;;-1.27;100.00;91772.31;2108658;28;20465;-84
2021/12/05 01:35:12;;;;;;;4.53;1.25;;;;;;;-1.24;100.00;91764.81;2099800;28;20433;-85
2021/12/05 01:36:30;;;;;;;1.40;0.90;;;;;;;-1.27;100.00;91771.56;2095039;28;20028;-85
2021/12/05 01:52:00;;;;;;;6.90;0.90;;;;;;;-1.20;100.00;91768.19;2108892;28;20020;-84
2021/12/05 01:59:18;;;;;;;3.92;1.15;;;;;;;-1.13;100.00;91782.03;2105962;28;20513;-85
2021/12/05 02:11:19;;;;;;;2.30;0.70;;;;;;;-1.57;100.00;91772.66;2104415;28;19912;-85
2021/12/05 02:31:17;;;;;;;;;;;;;;;-1.57;100.00;91743.84;2116228;28;20032;-85
2021/12/05 02:32:51;;;;;;;2.35;0.93;;;;;;;-1.65;100.00;91744.94;2107675;28;19916;-85
2021/12/05 02:37:46;;;;;;;2.90;0.98;;;;;;;-1.96;100.00;91730.66;2121326;27;20361;-85
2021/12/05 02:41:19;;;;;;;4.00;1.15;;;;;;;-1.87;100.00;91735.56;2130032;27;20391;-85
2021/12/05 02:42:31;;;;;;;3.35;0.68;;;;;;;-1.85;100.00;91738.53;2113860;28;20047;-85
2021/12/05 02:43:40;;;;;;;2.25;1.33;;;;;;;-1.89;100.00;91735.94;2114504;28;20103;-85
2021/12/05 02:44:46;;;;;;;2.50;1.05;;;;;;;-1.90;100.00;91739.66;2114173;28;20051;-85
2021/12/05 02:45:48;;;;;;;5.68;1.13;;;;;;;-1.84;100.00;91737.44;2106056;28;20103;-85
2021/12/05 02:47:05;;;;;;;3.22;0.90;;;;;;;-1.87;100.00;91738.16;2104787;28;20134;-85
2021/12/05 02:48:12;;;;;;;3.08;0.90;;;;;;;-2.08;100.00;91734.38;2106222;28;20030;-85
2021/12/05 02:49:16;;;;;;;4.03;0.93;;;;;;;-1.99;100.00;91731.41;2098035;28;20351;-85
2021/12/05 02:50:30;;;;;;;3.33;0.90;;;;;;;-2.06;100.00;91740.00;2096646;28;20079;-85
2021/12/05 02:51:33;;;;;;;3.40;1.00;;;;;;;-1.90;100.00;91736.28;2106742;28;20032;-85
2021/12/05 02:52:41;;;;;;;1.77;0.98;;;;;;;-2.09;100.00;91735.50;2104975;28;20028;-85
2021/12/05 02:54:03;;;;;;;2.83;1.05;;;;;;;-1.97;100.00;91736.28;2106512;28;20472;-85
2021/12/05 02:55:25;;;;;;;5.18;1.00;;;;;;;-1.93;100.00;91732.56;2116037;28;20098;-85
2021/12/05 02:56:28;;;;;;;2.08;0.70;;;;;;;-1.95;100.00;91731.41;2110485;28;20027;-85
2021/12/05 02:58:16;;;;;;;1.90;0.88;;;;;;;-1.95;100.00;91728.81;2120115;28;20246;-85
2021/12/05 02:58:59;;;;;;;2.58;0.98;;;;;;;-1.80;100.00;91738.94;2112910;28;20039;-85
2021/12/05 03:00:07;;;;;;;2.58;0.90;;;;;;;-1.71;100.00;91732.56;2113409;28;20038;-85
2021/12/05 03:01:22;;;;;;;2.95;0.93;;;;;;;-1.67;100.00;91736.69;2112713;28;20046;-85
2021/12/05 03:02:29;;;;;;;5.85;0.70;;;;;;;-1.66;100.00;91740.09;2099483;28;20517;-85
2021/12/05 03:03:32;;;;;;;2.90;0.80;;;;;;;-1.74;100.00;91730.72;2097562;28;20032;-85
2021/12/05 03:04:37;;;;;;;2.45;0.82;;;;;;;-1.81;100.00;91734.06;2104857;28;20035;-85
2021/12/05 03:05:43;;;;;;;4.80;0.80;;;;;;;-1.75;100.00;91734.47;2104825;28;20024;-85
2021/12/05 03:06:52;;;;;;;1.27;0.65;;;;;;;-1.72;100.00;91731.81;2103882;28;20028;-85
2021/12/05 03:07:58;;;;;;;2.35;0.70;;;;;;;-1.66;100.00;91737.47;2096968;28;20037;-85
2021/12/05 03:09:13;;;;;;;2.10;0.77;;;;;;;-1.62;100.00;91738.97;2088896;28;20073;-85
2021/12/05 03:10:17;;;;;;;4.68;1.00;;;;;;;-1.62;100.00;91736.34;2091523;28;20018;-85
2021/12/05 03:11:20;;;;;;;4.00;1.02;;;;;;;-1.57;100.00;91740.47;2105162;28;20020;-85
2021/12/05 03:12:21;;;;;;;1.98;0.60;;;;;;;-1.59;100.00;91737.44;2098033;28;20024;-85
2021/12/05 03:13:22;;;;;;;4.55;0.90;;;;;;;-1.60;100.00;91733.34;2104166;28;20054;-85
2021/12/05 03:14:23;;;;;;;1.92;0.65;;;;;;;-1.65;100.00;91736.34;2112689;28;20016;-85
2021/12/05 03:15:24;;;;;;;2.92;1.00;;;;;;;-1.50;100.00;91737.09;2103849;28;20100;-85
2021/12/05 03:16:27;;;;;;;3.90;1.08;;;;;;;-1.55;100.00;91735.59;2095813;28;20048;-85
2021/12/05 03:17:28;;;;;;;1.92;0.80;;;;;;;-1.50;100.00;91729.22;2096235;28;20025;-85
2021/12/05 03:18:35;;;;;;;4.78;0.82;;;;;;;-1.43;100.00;91724.75;2104392;28;20023;-86
2021/12/05 03:19:38;;;;;;;2.97;0.73;;;;;;;-1.34;100.00;91727.00;2105163;28;20024;-86
2021/12/05 03:20:39;;;;;;;4.05;0.90;;;;;;;-1.32;100.00;91727.34;2098840;28;20024;-85
2021/12/05 03:21:42;;;;;;;1.90;0.80;;;;;;;-1.27;100.00;91724.38;2107056;28;20035;-86
2021/12/05 03:22:43;;;;;;;5.10;0.90;;;;;;;-1.08;100.00;91726.59;2098223;28;20032;-85
2021/12/05 03:23:47;;;;;;;2.22;0.75;;;;;;;-0.99;100.00;91725.47;2110427;28;20033;-86
2021/12/05 03:24:48;;;;;;;4.75;0.90;;;;;;;-0.98;100.00;91724.34;2090145;28;20035;-84
2021/12/05 03:25:49;;;;;;;4.93;0.90;;;;;;;-0.93;100.00;91729.94;2089758;28;20028;-86
2021/12/05 03:26:52;;;;;;;5.43;0.88;;;;;;;-1.04;100.00;91732.59;2098250;28;20020;-85
2021/12/05 03:27:56;;;;;;;8.05;0.90;;;;;;;-1.04;100.00;91727.34;2090037;28;20383;-85
2021/12/05 03:28:58;;;;;;;2.08;0.88;;;;;;;-1.06;100.00;91726.22;2094265;28;20114;-85
2021/12/05 03:29:59;;;;;;;1.52;0.57;;;;;;;-1.07;100.00;91728.09;2097730;28;20025;-85
2021/12/05 03:31:01;;;;;;;1.73;0.70;;;;;;;-1.08;100.00;91723.22;2097435;28;20394;-86
2021/12/05 03:32:02;;;;;;;2.22;0.77;;;;;;;-1.08;100.00;91731.84;2101330;28;20111;-85
2021/12/05 03:33:04;;;;;;;1.58;0.65;;;;;;;-1.13;100.00;91726.97;2089063;28;20039;-86
2021/12/05 03:34:10;;;;;;;3.65;0.90;;;;;;;-1.15;100.00;91717.97;2089392;28;20017;-86
2021/12/05 03:35:12;;;;;;;2.92;0.77;;;;;;;-1.12;100.00;91725.09;2090832;28;20195;-86
2021/12/05 03:36:13;;;;;;;2.35;1.02;;;;;;;-1.00;100.00;91719.47;2097340;28;20087;-85
2021/12/05 03:37:14;;;;;;;3.08;0.77;;;;;;;-1.07;100.00;91722.09;2097577;28;20016;-86
2021/12/05 03:38:15;;;;;;;2.55;0.70;;;;;;;-1.15;100.00;91717.97;2090497;28;20087;-86
2021/12/05 03:39:16;;;;;;;3.88;1.02;;;;;;;-1.11;100.00;91718.72;2107019;28;20016;-86
2021/12/05 03:40:21;;;;;;;3.83;0.93;;;;;;;-1.15;100.00;91713.50;2107117;28;20020;-86
2021/12/05 03:41:27;;;;;;;4.75;1.00;;;;;;;-1.12;100.00;91714.63;2098888;28;20062;-86
2021/12/05 03:42:28;;;;;;;4.55;0.93;;;;;;;-0.99;100.00;91722.84;2091297;28;20024;-86
2021/12/05 03:43:31;;;;;;;3.10;1.00;;;;;;;-1.02;100.00;91708.59;2090350;28;20025;-86
2021/12/05 03:44:35;;;;;;;5.43;1.10;;;;;;;-1.01;100.00;91715.34;2090766;28;20115;-86
2021/12/05 03:45:42;;;;;;;4.13;0.93;;;;;;;-0.98;100.00;91719.84;2090731;28;20115;-87
2021/12/05 03:46:43;;;;;;;0.80;0.60;;;;;;;-1.00;100.00;91711.63;2099466;28;20110;-86
2021/12/05 03:47:45;;;;;;;2.20;0.70;;;;;;;-0.94;100.00;91711.97;2089780;28;20146;-85
2021/12/05 03:48:54;;;;;;;2.50;0.90;;;;;;;-0.84;100.00;91714.56;2098525;28;20055;-85
2021/12/05 03:49:56;;;;;;;3.08;0.85;;;;;;;-0.77;100.00;91716.44;2100778;28;20024;-86
2021/12/05 03:50:58;;;;;;;2.67;0.90;;;;;;;-0.68;100.00;91711.53;2098421;28;20039;-86
2021/12/05 03:52:06;;;;;;;1.35;0.70;;;;;;;-0.82;100.00;91717.56;2090411;28;20085;-86
2021/12/05 03:53:10;;;;;;;3.90;0.80;;;;;;;-0.86;100.00;91716.06;2092160;28;20032;-86
2021/12/05 03:54:12;;;;;;;4.72;0.95;;;;;;;-0.89;100.00;91712.31;2091218;28;20039;-87
2021/12/05 03:55:15;;;;;;;8.65;1.27;;;;;;;-0.89;100.00;91709.69;2090702;28;20074;-86
2021/12/05 03:56:17;;;;;;;4.03;1.02;;;;;;;-0.90;100.00;91713.47;2090828;28;20033;-86
2021/12/05 03:57:18;;;;;;;6.88;0.73;;;;;;;-0.88;100.00;91711.22;2098686;28;20027;-86
2021/12/05 03:58:21;;;;;;;4.53;0.93;;;;;;;-0.87;100.00;91710.09;2106830;28;20051;-86
2021/12/05 03:59:22;;;;;;;4.35;1.20;;;;;;;-0.94;100.00;91709.34;2107141;28;20032;-86
2021/12/05 04:00:28;;;;;;;2.22;0.65;;;;;;;-0.81;100.00;91710.44;2098348;28;20028;-86
2021/12/05 04:01:30;;;;;;;5.38;1.27;;;;;;;-0.85;100.00;91709.69;2107566;28;20564;-86
2021/12/05 04:02:34;;;;;;;3.28;0.80;;;;;;;-0.77;100.00;91709.31;2098178;28;20028;-86
2021/12/05 04:03:36;;;;;;;3.50;1.05;;;;;;;-0.63;100.00;91713.00;2098531;28;20071;-86
2021/12/05 04:04:37;;;;;;;2.53;0.60;;;;;;;-0.58;100.00;91707.38;2098593;28;20035;-85
2021/12/05 04:05:38;;;;;;;3.50;0.50;;;;;;;-0.67;100.00;91713.03;2098463;28;20384;-86
2021/12/05 04:06:40;;;;;;;3.80;0.90;;;;;;;-0.72;100.00;91710.78;2089975;28;20411;-86
2021/12/05 04:07:41;;;;;;;6.38;0.80;;;;;;;-0.56;100.00;91711.13;2098056;28;20079;-85
2021/12/05 04:08:42;;;;;;;4.38;1.05;;;;;;;-0.64;100.00;91708.91;2098084;28;20055;-85
2021/12/05 04:09:44;;;;;;;2.38;0.70;;;;;;;-0.70;100.00;91713.03;2098492;28;20024;-86
2021/12/05 04:10:50;;;;;;;3.05;0.80;;;;;;;-0.73;100.00;91708.56;2090431;28;20427;-86
2021/12/05 04:11:59;;;;;;;5.18;1.45;;;;;;;-0.68;100.00;91706.28;2098939;28;20032;-85
2021/12/05 04:13:01;;;;;;;2.17;0.83;;;;;;;-0.57;100.00;91708.88;2092398;28;20394;-85
2021/12/05 04:14:12;;;;;;;3.80;0.73;;;;;;;-0.55;100.00;91714.50;2090291;28;20440;-86
2021/12/05 04:15:14;;;;;;;5.07;0.98;;;;;;;-0.53;100.00;91709.59;2101364;28;20046;-86
2021/12/05 04:16:20;;;;;;;4.40;1.00;;;;;;;-0.65;100.00;91710.78;2106708;28;20043;-86
2021/12/05 04:17:25;;;;;;;4.90;1.00;;;;;;;-0.78;100.00;91704.44;2098803;28;20047;-84
2021/12/05 04:18:29;;;;;;;2.58;1.00;;;;;;;-0.60;100.00;91699.16;2091027;28;20028;-86
2021/12/05 04:19:38;;;;;;;4.82;1.20;;;;;;;-0.57;100.00;91701.00;2090954;28;20454;-86
2021/12/05 04:20:41;;;;;;;2.97;0.70;;;;;;;-0.65;100.00;91699.53;2100451;28;20031;-86
2021/12/05 04:21:42;;;;;;;4.35;0.85;;;;;;;-0.67;100.00;91710.41;2106162;28;20087;-86
2021/12/05 04:22:46;;;;;;;2.80;0.77;;;;;;;-0.77;100.00;91700.69;2105372;28;20028;-86
2021/12/05 04:23:48;;;;;;;1.75;0.50;;;;;;;-0.70;100.00;91713.03;2106112;28;20034;-85
2021/12/05 04:24:50;;;;;;;0.90;0.60;;;;;;;-0.64;100.00;91704.41;2105797;28;20026;-85
2021/12/05 04:25:52;;;;;;;4.10;0.90;;;;;;;-0.64;100.00;91703.66;2093444;28;20462;-85
2021/12/05 04:26:53;;;;;;;2.10;0.60;;;;;;;-0.58;100.00;91702.13;2089929;28;20110;-85
2021/12/05 04:27:55;;;;;;;1.55;0.70;;;;;;;-0.59;100.00;91708.50;2089868;28;20029;-85
2021/12/05 04:28:56;;;;;;;2.33;0.63;;;;;;;-0.59;100.00;91706.63;2089889;28;20386;-85
2021/12/05 04:29:57;;;;;;;1.90;0.80;;;;;;;-0.58;100.00;91705.50;2093777;28;20116;-85
2021/12/05 04:30:59;;;;;;;2.38;1.00;;;;;;;-0.51;100.00;91705.47;2091964;28;20094;-85
2021/12/05 04:32:00;;;;;;;5.57;1.00;;;;;;;-0.43;100.00;91700.22;2096951;28;20032;-85
2021/12/05 04:33:05;;;;;;;2.97;0.90;;;;;;;-0.51;100.00;91699.50;2090050;28;20016;-85
2021/12/05 04:34:07;;;;;;;1.98;0.80;;;;;;;-0.42;100.00;91707.69;2098421;28;20024;-85
2021/12/05 04:35:12;;;;;;;4.50;1.23;;;;;;;-0.38;100.00;91699.81;2098174;28;20021;-85
2021/12/05 04:36:17;;;;;;;2.28;0.93;;;;;;;-0.45;100.00;91692.69;2098924;28;20413;-85
2021/12/05 04:37:20;;;;;;;3.35;1.27;;;;;;;-0.48;100.00;91700.59;2106099;28;20027;-85
2021/12/05 04:38:22;;;;;;;5.13;2.55;;;;;;;-0.59;100.00;91703.25;2090306;28;20036;-85
2021/12/05 04:39:26;;;;;;;4.88;1.50;;;;;;;-0.62;100.00;91701.38;2090091;28;20021;-86
2021/12/05 04:40:27;;;;;;;5.43;1.55;;;;;;;-0.57;100.00;91706.25;2098763;28;20059;-86
2021/12/05 04:41:28;;;;;;;6.65;1.48;;;;;;;-0.43;100.00;91700.97;2090034;28;20020;-86
2021/12/05 04:42:29;;;;;;;2.35;0.88;;;;;;;-0.18;100.00;91700.84;2090277;28;20028;-85
2021/12/05 04:43:38;;;;;;;3.83;1.27;;;;;;;-0.30;100.00;91698.66;2106433;28;20074;-86
2021/12/05 04:44:43;;;;;;;1.90;1.00;;;;;;;-0.43;100.00;91706.22;2101687;28;20175;-86
2021/12/05 04:45:46;;;;;;;5.32;1.15;;;;;;;-0.49;100.00;91705.09;2098777;28;20024;-86
2021/12/05 04:46:47;;;;;;;3.10;0.80;;;;;;;-0.57;100.00;91701.75;2089921;28;20028;-86
2021/12/05 04:47:48;;;;;;;2.70;1.20;;;;;;;-0.49;100.00;91704.34;2089746;28;20100;-86
2021/12/05 04:48:53;;;;;;;1.95;1.50;;;;;;;-0.57;100.00;91701.00;2106319;28;20024;-86
2021/12/05 04:49:55;;;;;;;0.73;0.70;;;;;;;-0.55;100.00;91704.75;2099279;28;20032;-86
2021/12/05 04:50:56;;;;;;;3.15;1.27;;;;;;;-0.65;100.00;91705.53;2097921;28;20024;-86
2021/12/05 04:52:01;;;;;;;3.03;1.05;;;;;;;-0.68;100.00;91702.91;2089430;28;20112;-86
2021/12/05 04:53:03;;;;;;;3.63;1.08;;;;;;;-0.69;100.00;91704.78;2091035;28;20024;-86
2021/12/05 04:54:05;;;;;;;4.63;1.00;;;;;;;-0.48;100.00;91703.97;2090096;28;20025;-86
2021/12/05 04:55:07;;;;;;;3.47;0.90;;;;;;;-0.51;100.00;91702.09;2089907;28;20500;-86
2021/12/05 04:56:11;;;;;;;3.92;1.10;;;;;;;-0.66;100.00;91703.28;2098010;28;20021;-86
2021/12/05 04:57:17;;;;;;;1.92;1.17;;;;;;;-0.68;100.00;91706.28;2090503;28;20032;-86
2021/12/05 04:58:18;;;;;;;2.05;1.02;;;;;;;-0.74;100.00;91710.44;2098006;28;20623;-86
2021/12/05 04:59:24;;;;;;;1.92;1.00;;;;;;;-0.69;100.00;91704.03;2089608;28;20074;-86
2021/12/05 05:00:39;;;;;;;2.67;1.20;;;;;;;-0.70;100.00;91702.53;2098627;28;20021;-86
2021/12/05 05:01:47;;;;;;;6.03;1.08;;;;;;;-0.70;100.00;91694.66;2097947;28;20366;-86
2021/12/05 05:02:48;;;;;;;2.90;1.10;;;;;;;-0.75;100.00;91701.03;2095394;28;20552;-86
2021/12/05 05:03:51;;;;;;;4.55;1.10;;;;;;;-0.76;100.00;91696.94;2097966;28;20021;-86
2021/12/05 05:04:54;;;;;;;2.05;0.90;;;;;;;-0.67;100.00;91694.66;2098085;28;20098;-86
2021/12/05 05:06:10;;;;;;;3.42;1.25;;;;;;;-0.67;100.00;91696.53;2090588;28;20025;-85
2021/12/05 05:07:20;;;;;;;1.90;0.90;;;;;;;-0.60;100.00;91699.88;2093745;28;20439;-86
2021/12/05 05:08:21;;;;;;;;;;;;;;;-0.71;100.00;91707.03;2099456;28;20095;-86
2021/12/05 05:09:22;;;;;;;6.68;1.00;;;;;;;-0.79;100.00;91705.56;2089787;28;19919;-86
2021/12/05 05:10:26;;;;;;;4.03;1.02;;;;;;;-0.75;100.00;91706.28;2086613;28;20121;-86
2021/12/05 05:11:27;;;;;;;1.88;0.90;;;;;;;-0.74;100.00;91699.94;2089092;28;20032;-86
2021/12/05 05:12:29;;;;;;;3.92;1.17;;;;;;;-0.72;100.00;91705.53;2097681;28;20504;-86
2021/12/05 05:13:30;;;;;;;4.80;1.45;;;;;;;-0.71;100.00;91707.03;2106271;28;20587;-86
2021/12/05 05:14:31;;;;;;;3.15;1.00;;;;;;;-0.66;100.00;91706.66;2097849;28;20017;-86
2021/12/05 05:15:35;;;;;;;3.83;1.20;;;;;;;-0.67;100.00;91699.16;2089637;28;20021;-86
2021/12/05 05:16:36;;;;;;;3.30;0.90;;;;;;;-0.68;100.00;91701.03;2089963;28;20087;-85
2021/12/05 05:17:39;;;;;;;3.22;1.00;;;;;;;-0.58;100.00;91704.75;2089500;28;20059;-86
2021/12/05 05:18:46;;;;;;;2.67;0.90;;;;;;;-0.61;100.00;91701.03;2090086;28;20021;-86
2021/12/05 05:19:51;;;;;;;3.58;0.95;;;;;;;-0.61;100.00;91693.16;2098522;28;20016;-85
2021/12/05 05:21:12;;;;;;;1.77;0.90;;;;;;;-0.59;100.00;91698.75;2089180;28;20021;-86
2021/12/05 05:22:53;;;;;;;3.58;0.80;;;;;;;-0.77;100.00;91696.19;2091821;28;20469;-86
2021/12/05 05:28:59;;;;;;;1.30;0.95;;;;;;;-0.60;100.00;91705.13;2108471;28;20069;-85
2021/12/05 05:39:53;;;;;;;4.40;1.50;;;;;;;-0.67;100.00;91702.53;2100295;28;19944;-86
2021/12/05 05:46:15;;;;;;;5.28;1.05;;;;;;;-0.80;100.00;91709.31;2084931;28;20164;-85
2021/12/05 05:49:49;;;;;;;3.50;1.13;;;;;;;-0.80;100.00;91707.44;2091424;28;20120;-85
2021/12/05 05:50:50;;;;;;;4.75;1.15;;;;;;;-0.78;100.00;91710.44;2092954;28;20033;-86
2021/12/05 05:51:51;;;;;;;4.40;1.30;;;;;;;-0.76;100.00;91712.66;2089224;28;20496;-85
2021/12/05 05:52:52;;;;;;;1.98;1.02;;;;;;;-0.76;100.00;91710.03;2097477;28;20109;-85
2021/12/05 05:53:53;;;;;;;2.83;0.80;;;;;;;-0.73;100.00;91711.19;2089319;28;20100;-85
2021/12/05 05:54:57;;;;;;;3.50;1.05;;;;;;;-0.72;100.00;91708.16;2097586;28;20024;-86
2021/12/05 05:55:58;;;;;;;2.58;1.20;;;;;;;-0.80;100.00;91712.69;2089063;28;20155;-85
2021/12/05 05:57:21;;;;;;;1.67;0.95;;;;;;;-0.83;100.00;91715.31;2089426;28;20025;-85
2021/12/05 05:58:29;;;;;;;1.65;1.17;;;;;;;-0.78;100.00;91707.81;2100557;28;20020;-85
2021/12/05 05:59:40;;;;;;;2.80;1.90;;;;;;;-0.70;100.00;91715.66;2096096;28;20035;-85
2021/12/05 06:00:58;;;;;;;1.70;1.38;;;;;;;-0.61;100.00;91710.78;2090706;28;20075;-85
2021/12/05 06:03:20;;;;;;;2.20;1.10;;;;;;;-0.60;100.00;91717.50;2085471;28;20029;-85
2021/12/05 06:03:21;;;;;;;3.83;1.00;;;;;;;-0.48;100.00;91716.34;2094821;28;20092;-85
2021/12/05 06:04:22;;;;;;;2.10;0.80;;;;;;;-0.55;100.00;91717.88;2089506;28;20021;-86
2021/12/05 06:05:24;;;;;;;2.63;0.88;;;;;;;-0.43;100.00;91713.34;2080836;28;20043;-86
2021/12/05 06:06:30;;;;;;;3.55;0.90;;;;;;;-0.39;100.00;91714.81;2081270;28;20033;-85
2021/12/05 06:07:33;;;;;;;1.50;0.80;;;;;;;-0.55;100.00;91725.72;2098072;28;20026;-86
2021/12/05 06:08:39;;;;;;;2.15;1.10;;;;;;;-0.52;100.00;91721.63;2089245;28;20037;-85
2021/12/05 06:09:41;;;;;;;5.38;1.35;;;;;;;-0.63;100.00;91726.88;2082277;28;20664;-85
2021/12/05 06:10:45;;;;;;;2.08;0.93;;;;;;;-0.67;100.00;91726.13;2081493;28;20052;-85
2021/12/05 06:11:47;;;;;;;2.53;0.93;;;;;;;-0.69;100.00;91731.03;2098085;28;20024;-85
2021/12/05 06:12:49;;;;;;;7.10;1.05;;;;;;;-0.67;100.00;91728.75;2097837;28;20016;-84
2021/12/05 06:13:52;;;;;;;3.45;1.08;;;;;;;-0.65;100.00;91716.03;2097701;28;20028;-86
2021/12/05 06:14:54;;;;;;;2.08;0.80;;;;;;;-0.67;100.00;91720.16;2082432;28;20396;-86
2021/12/05 06:15:57;;;;;;;3.78;1.30;;;;;;;-0.68;100.00;91716.03;2087113;28;20029;-85
2021/12/05 06:16:58;;;;;;;2.58;1.20;;;;;;;-0.67;100.00;91712.28;2105758;28;20063;-85
2021/12/05 06:17:59;;;;;;;2.90;1.13;;;;;;;-0.66;100.00;91716.38;2114184;28;20038;-86
2021/12/05 06:19:00;;;;;;;2.83;0.82;;;;;;;-0.46;100.00;91706.22;2095809;28;20024;-86
2021/12/05 06:20:05;;;;;;;2.63;0.98;;;;;;;-0.55;100.00;91711.88;2103417;28;20031;-86
2021/12/05 06:21:08;;;;;;;3.17;1.23;;;;;;;-0.60;100.00;91704.41;2095893;28;20124;-86
2021/12/05 06:22:08;;;;;;;3.92;1.35;;;;;;;-0.57;100.00;91701.75;2082772;28;20607;-87
2021/12/05 06:23:11;;;;;;;2.80;1.33;;;;;;;-0.47;100.00;91702.09;2089217;28;20035;-86
2021/12/05 06:24:17;;;;;;;1.70;1.23;;;;;;;-0.59;100.00;91698.00;2103742;28;20024;-86
2021/12/05 06:25:23;;;;;;;1.45;1.10;;;;;;;-0.49;100.00;91709.59;2103989;28;20469;-86
2021/12/05 06:26:24;;;;;;;2.05;0.93;;;;;;;-0.51;100.00;91696.88;2092013;28;20108;-86
2021/12/05 06:27:33;;;;;;;5.00;1.38;;;;;;;-0.63;100.00;91702.53;2087225;28;20414;-86
2021/12/05 06:28:40;;;;;;;2.95;1.20;;;;;;;-0.65;100.00;91695.03;2089753;28;20025;-87
2021/12/05 06:29:50;;;;;;;2.90;1.70;;;;;;;-0.61;100.00;91695.78;2097318;28;20107;-86
2021/12/05 06:32:19;;;;;;;1.98;1.30;;;;;;;-0.56;100.00;91695.38;2105403;28;20094;-86
2021/12/05 06:37:43;;;;;;;3.10;1.15;;;;;;;-0.30;100.00;91699.41;2107774;28;20039;-86
2021/12/05 06:42:35;;;;;;;3.65;1.17;;;;;;;-0.59;100.00;91703.25;2096699;28;20044;-86
2021/12/05 06:46:18;;;;;;;1.55;1.15;;;;;;;-0.59;100.00;91703.25;2098788;28;20712;-86
2021/12/05 06:47:27;;;;;;;5.10;1.30;;;;;;;-0.64;100.00;91707.03;2099079;28;20914;-86
2021/12/05 06:48:50;;;;;;;2.38;1.63;;;;;;;-0.73;100.00;91714.53;2096826;28;20036;-86
2021/12/05 06:49:57;;;;;;;5.30;1.50;;;;;;;-0.36;100.00;91724.53;2100658;28;20118;-86
2021/12/05 06:51:02;;;;;;;1.52;0.93;;;;;;;-0.36;100.00;91716.66;2090347;28;20068;-87
2021/12/05 06:52:07;;;;;;;3.53;1.60;;;;;;;-0.39;100.00;91716.69;2097155;28;20037;-86
2021/12/05 06:53:14;;;;;;;3.45;1.95;;;;;;;-0.53;100.00;91720.88;2105468;28;20869;-87
2021/12/05 06:54:15;;;;;;;3.00;0.93;;;;;;;-0.59;100.00;91719.00;2113682;28;20035;-86
2021/12/05 06:55:17;;;;;;;3.33;1.52;;;;;;;-0.67;100.00;91717.53;2105105;28;20024;-87
2021/12/05 06:56:18;;;;;;;3.92;1.45;;;;;;;-0.58;100.00;91716.00;2090291;28;20037;-88
2021/12/05 06:57:19;;;;;;;5.13;1.52;;;;;;;-0.43;100.00;91721.22;2090128;28;20363;-87
2021/12/05 06:58:23;;;;;;;5.13;1.25;;;;;;;-0.64;100.00;91720.16;2089935;28;20139;-86
2021/12/05 06:59:24;;;;;;;3.33;1.10;;;;;;;-0.67;100.00;91720.16;2098543;28;20024;-86
2021/12/05 07:00:30;;;;;;;1.85;1.17;;;;;;;-0.66;100.00;91724.25;2098163;28;20020;-86
2021/12/05 07:01:31;;;;;;;2.78;1.20;;;;;;;-0.59;100.00;91719.75;2107412;28;20020;-86
2021/12/05 07:02:32;;;;;;;3.35;1.15;;;;;;;-0.54;100.00;91719.34;2098377;28;20462;-87
2021/12/05 07:03:34;;;;;;;3.90;1.30;;;;;;;-0.49;100.00;91720.84;2105146;28;20102;-86
2021/12/05 07:06:49;;;;;;;2.95;1.23;;;;;;;-0.70;100.00;91720.91;2106757;28;20038;-86
2021/12/05 07:07:50;;;;;;;1.90;1.20;;;;;;;-0.55;100.00;91717.13;2098195;28;20033;-86
2021/12/05 07:08:54;;;;;;;2.55;1.17;;;;;;;-0.64;100.00;91712.28;2089856;28;20049;-86
2021/12/05 07:09:56;;;;;;;1.77;1.50;;;;;;;-0.52;100.00;91721.63;2090217;28;20021;-86
2021/12/05 07:11:48;;;;;;;2.58;1.35;;;;;;;-0.69;100.00;91720.53;2089588;28;20025;-86
2021/12/05 07:15:15;;;;;;;1.60;1.45;;;;;;;-0.68;100.00;91716.78;2109298;28;19958;-86
2021/12/05 07:19:38;;;;;;;4.85;3.72;;;;;;;-0.56;100.00;91707.75;2106520;28;20020;-87
2021/12/05 07:20:58;;;;;;;4.63;4.20;;;;;;;-0.62;100.00;91704.75;2099554;28;20158;-87
2021/12/05 07:22:03;;;;;;;4.32;2.92;;;;;;;-0.68;100.00;91710.78;2094979;28;20478;-85
2021/12/05 07:25:25;;;;;;;3.65;2.20;;;;;;;-0.59;100.00;91714.50;2106981;28;20032;-86
2021/12/05 07:26:51;;;;;;;4.40;1.80;;;;;;;-0.61;100.00;91706.28;2106433;28;20028;-86
2021/12/05 07:41:30;;;;;;;2.72;1.35;;;;;;;-0.55;100.00;91727.63;2100428;28;20024;-87
2021/12/05 07:42:33;;;;;;;1.40;0.85;;;;;;;-0.47;100.00;91723.84;2103631;28;20752;-87
2021/12/05 07:43:34;;;;;;;2.15;1.27;;;;;;;-0.52;100.00;91719.72;2106244;28;20028;-87
2021/12/05 07:44:35;;;;;;;3.28;2.30;;;;;;;-0.47;100.00;91721.22;2098128;28;20024;-86
2021/12/05 07:45:44;;;;;;;5.57;3.88;;;;;;;-0.48;100.00;91713.72;2097501;28;20861;-86
2021/12/05 07:46:48;;;;;;;4.50;2.08;;;;;;;-0.46;100.00;91714.09;2099317;28;20060;-86
2021/12/05 07:47:55;;;;;;;3.47;1.83;;;;;;;-0.28;100.00;91720.00;2090141;28;20912;-85
2021/12/05 07:48:56;;;;;;;1.70;1.30;;;;;;;-0.33;100.00;91712.53;2098922;28;20020;-86
2021/12/05 07:50:08;;;;;;;2.03;1.10;;;;;;;-0.27;100.00;91721.50;2106369;28;20027;-85
2021/12/05 07:51:23;;;;;;;2.85;1.13;;;;;;;-0.28;100.00;91723.38;2099269;28;20111;-86
2021/12/05 07:52:27;;;;;;;3.10;1.20;;;;;;;-0.27;100.00;91719.63;2093695;28;20446;-86
2021/12/05 07:53:35;;;;;;;2.42;1.00;;;;;;;-0.22;100.00;91715.09;2098036;28;20030;-86
2021/12/05 07:54:44;;;;;;;3.38;1.20;;;;;;;-0.31;100.00;91707.66;2098117;28;20032;-84
2021/12/05 07:55:48;;;;;;;4.65;3.08;;;;;;;-0.24;100.00;91706.88;2099048;28;20051;-86
2021/12/05 07:57:02;;;;;;;3.90;1.75;;;;;;;-0.37;100.00;91709.19;2094356;28;20025;-85
2021/12/05 08:14:57;;;;;;;3.70;0.80;;;;;;;0.26;100.00;91709.97;2112649;28;20438;-86
2021/12/05 08:16:03;;;;;;;2.40;0.80;;;;;;;0.13;100.00;91699.19;2098654;28;20119;-87
2021/12/05 08:17:06;;;;;;;0.88;0.80;;;;;;;0.28;100.00;91702.47;2090043;28;20032;-85
2021/12/05 08:18:07;;;;;;;4.35;0.90;;;;;;;0.25;100.00;91705.84;2098110;28;20118;-87
2021/12/05 08:19:08;;;;;;;2.83;1.50;;;;;;;0.32;100.00;91705.06;2097745;28;20016;-87
2021/12/05 08:20:11;;;;;;;5.57;1.20;;;;;;;0.28;100.00;91705.09;2097443;28;20024;-87
2021/12/05 08:21:12;;;;;;;2.00;1.20;;;;;;;0.20;100.00;91703.63;2097356;28;20023;-86
2021/12/05 08:22:15;;;;;;;4.57;1.50;;;;;;;0.27;100.00;91702.88;2086307;28;20020;-87
2021/12/05 08:23:16;;;;;;;4.95;1.02;;;;;;;0.57;100.00;91704.88;2094343;28;20025;-87
2021/12/05 08:24:17;;;;;;;1.90;1.10;;;;;;;0.57;100.00;91703.03;2088597;28;20028;-87